Time;durP1;ratioP1;P1;durP2;ratioP2;P2;SDS_P1;SDS_P2;PMS_P1;PMS_P2;Temp;Humidity;BMP_temperature;BMP_pressure;BME280_temperature;BME280_humidity;BME280_pressure;Samples;Min_cycle;Max_cycle;Signal;HPM_P1;HPM_P2
2022/01/25 00:24:47;;;;;;;66.10;36.22;;;3.30;99.90;;;;;;5017750;28;20057;-79
2022/01/25 00:32:08;;;;;;;74.18;37.58;;;3.40;99.90;;;;;;5031525;28;20048;-79
2022/01/25 00:34:34;;;;;;;68.00;33.95;;;3.30;99.90;;;;;;5031205;28;20045;-79
2022/01/25 00:36:59;;;;;;;70.68;38.50;;;3.30;99.90;;;;;;4998311;28;20049;-79
2022/01/25 00:39:25;;;;;;;73.65;40.15;;;3.30;99.90;;;;;;5030778;28;20119;-78
2022/01/25 00:41:51;;;;;;;68.55;36.88;;;3.30;99.90;;;;;;5014750;28;20469;-79
2022/01/25 00:44:17;;;;;;;66.07;35.50;;;3.30;99.90;;;;;;5030268;28;20124;-79
2022/01/25 00:46:42;;;;;;;68.38;37.33;;;3.30;99.90;;;;;;5015030;28;20479;-80
2022/01/25 00:49:09;;;;;;;67.80;36.88;;;3.30;99.90;;;;;;5014273;28;20050;-80
2022/01/25 00:52:04;;;;;;;69.75;37.17;;;3.40;99.90;;;;;;5014736;28;20119;-80
2022/01/25 00:56:49;;;;;;;70.57;37.72;;;3.30;99.90;;;;;;5030846;28;20124;-79
2022/01/25 00:59:26;;;;;;;70.88;36.63;;;3.30;99.90;;;;;;5030696;28;20400;-79
2022/01/25 01:01:56;;;;;;;67.38;36.70;;;3.30;99.90;;;;;;5030704;28;20515;-78
2022/01/25 01:04:22;;;;;;;68.70;35.22;;;3.30;99.90;;;;;;5030388;28;20512;-80
2022/01/25 01:06:48;;;;;;;67.75;36.53;;;3.30;99.90;;;;;;5030746;28;20068;-80
2022/01/25 01:09:15;;;;;;;67.38;36.80;;;3.30;99.90;;;;;;5014793;28;20049;-80
2022/01/25 01:11:55;;;;;;;70.22;37.67;;;3.30;99.90;;;;;;5030441;28;20459;-79
2022/01/25 01:30:55;;;;;;;73.22;38.47;;;3.30;99.90;;;;;;5028273;28;20557;-80
2022/01/25 01:44:20;;;;;;;73.70;37.13;;;3.30;99.90;;;;;;5030790;28;20132;-80
2022/01/25 01:47:02;;;;;;;68.18;35.85;;;3.30;99.90;;;;;;5030693;28;20124;-79
2022/01/25 01:49:29;;;;;;;67.60;38.25;;;3.30;99.90;;;;;;5016269;28;20053;-79
2022/01/25 01:51:55;;;;;;;66.13;36.28;;;3.30;99.90;;;;;;5031929;28;20048;-79
2022/01/25 01:54:21;;;;;;;70.90;38.22;;;3.30;99.90;;;;;;5015099;28;20160;-79
2022/01/25 01:56:47;;;;;;;72.50;37.63;;;3.30;99.90;;;;;;5031604;28;20124;-80
2022/01/25 01:59:16;;;;;;;72.43;38.83;;;3.40;99.90;;;;;;4999030;28;20408;-79
2022/01/25 02:01:45;;;;;;;71.40;37.83;;;3.30;99.90;;;;;;5015584;28;20488;-79
2022/01/25 02:04:14;;;;;;;67.68;36.60;;;3.30;99.90;;;;;;5015306;28;20479;-79
2022/01/25 02:06:40;;;;;;;71.50;38.55;;;3.30;99.90;;;;;;5031907;28;20470;-80
2022/01/25 02:09:08;;;;;;;70.22;37.90;;;3.30;99.90;;;;;;5031486;28;20073;-79
2022/01/25 02:11:34;;;;;;;68.70;36.45;;;3.30;99.90;;;;;;5031596;28;20128;-78
2022/01/25 02:14:05;;;;;;;72.88;39.03;;;3.30;99.90;;;;;;5031462;28;20121;-79
2022/01/25 02:24:47;;;;;;;67.72;36.88;;;3.30;99.90;;;;;;5031356;28;20104;-79
2022/01/25 02:27:14;;;;;;;71.75;38.42;;;3.30;99.90;;;;;;5031822;28;20484;-78
2022/01/25 02:29:39;;;;;;;70.35;38.15;;;3.30;99.90;;;;;;5034337;28;20045;-79
2022/01/25 02:32:06;;;;;;;76.07;37.65;;;3.30;99.90;;;;;;5019347;28;20041;-79
2022/01/25 02:34:32;;;;;;;68.38;36.88;;;3.30;99.90;;;;;;5019040;28;20498;-79
2022/01/25 02:37:00;;;;;;;68.85;37.33;;;3.30;99.90;;;;;;5018986;28;20081;-79
2022/01/25 02:39:27;;;;;;;72.10;38.30;;;3.30;99.90;;;;;;5018539;28;20097;-80
2022/01/25 02:41:54;;;;;;;71.78;38.55;;;3.30;99.90;;;;;;5019045;28;20100;-79
2022/01/25 02:44:28;;;;;;;68.88;37.70;;;3.40;99.90;;;;;;5002258;28;20077;-78
2022/01/25 02:49:30;;;;;;;76.20;39.25;;;3.30;99.90;;;;;;5035034;28;20049;-79
2022/01/25 02:51:57;;;;;;;72.22;37.42;;;3.20;99.90;;;;;;5018733;28;20051;-79
2022/01/25 02:54:22;;;;;;;75.80;39.20;;;3.30;99.90;;;;;;5034935;28;20041;-78
2022/01/25 02:56:48;;;;;;;78.13;40.83;;;3.30;99.90;;;;;;5035090;28;20107;-79
2022/01/25 02:59:16;;;;;;;77.35;39.35;;;3.30;99.90;;;;;;5034732;28;20470;-78
2022/01/25 03:01:44;;;;;;;79.50;39.97;;;3.30;99.90;;;;;;5035051;28;20041;-79
2022/01/25 03:04:11;;;;;;;72.13;38.30;;;3.30;99.90;;;;;;5018437;28;20049;-79
2022/01/25 03:06:37;;;;;;;71.85;39.17;;;3.30;99.90;;;;;;5034786;28;20057;-78
2022/01/25 03:09:05;;;;;;;72.17;37.40;;;3.30;99.90;;;;;;5034877;28;20454;-78
2022/01/25 03:11:30;;;;;;;79.20;40.13;;;3.30;99.90;;;;;;5018450;28;20045;-79
2022/01/25 03:13:59;;;;;;;75.47;40.17;;;3.30;99.90;;;;;;5018211;28;20052;-78
2022/01/25 03:16:42;;;;;;;75.78;39.58;;;3.30;99.90;;;;;;5018722;28;20111;-78
2022/01/25 03:21:59;;;;;;;80.43;41.40;;;3.30;99.90;;;;;;5034797;28;20076;-79
2022/01/25 03:24:25;;;;;;;71.88;37.28;;;3.30;99.90;;;;;;5034362;28;20049;-79
2022/01/25 03:26:52;;;;;;;74.70;39.60;;;3.30;99.90;;;;;;5018214;28;20049;-78
2022/01/25 03:29:18;;;;;;;67.28;35.30;;;3.30;99.90;;;;;;5034349;28;20081;-79
2022/01/25 03:31:44;;;;;;;71.72;37.20;;;3.30;99.90;;;;;;5018311;28;20491;-78
2022/01/25 03:34:10;;;;;;;72.35;38.78;;;3.30;99.90;;;;;;5017686;28;20070;-79
2022/01/25 03:36:36;;;;;;;74.70;38.83;;;3.30;99.90;;;;;;5017889;28;20443;-79
2022/01/25 03:39:05;;;;;;;78.38;40.08;;;3.30;99.90;;;;;;5033927;28;20653;-78
2022/01/25 03:41:31;;;;;;;72.32;38.72;;;3.30;99.90;;;;;;5033373;28;20050;-78
2022/01/25 03:43:58;;;;;;;71.35;38.63;;;3.30;99.90;;;;;;5033911;28;20060;-78
2022/01/25 03:51:38;;;;;;;65.82;36.60;;;3.30;99.90;;;;;;5020127;28;20442;-79
2022/01/25 03:54:04;;;;;;;71.07;37.93;;;3.30;99.90;;;;;;5017685;28;20049;-79
2022/01/25 03:56:30;;;;;;;73.23;37.77;;;3.30;99.90;;;;;;5033959;28;20046;-79
2022/01/25 03:58:56;;;;;;;67.97;36.50;;;3.30;99.90;;;;;;5033983;28;20084;-79
2022/01/25 04:01:22;;;;;;;79.57;39.58;;;3.30;99.90;;;;;;5033624;28;20099;-78
2022/01/25 04:03:57;;;;;;;69.73;36.73;;;3.30;99.90;;;;;;5033957;28;20042;-78
2022/01/25 04:06:26;;;;;;;64.70;34.77;;;3.30;99.90;;;;;;5034031;28;20517;-80
2022/01/25 04:08:53;;;;;;;80.28;40.88;;;3.30;99.90;;;;;;5017567;28;20049;-78
2022/01/25 04:11:18;;;;;;;78.28;39.22;;;3.30;99.90;;;;;;5033979;28;20468;-78
2022/01/25 04:13:44;;;;;;;75.30;39.90;;;3.30;99.90;;;;;;5017026;28;20041;-78
2022/01/25 04:16:15;;;;;;;77.03;36.53;;;3.30;99.90;;;;;;5017234;28;20076;-78
2022/01/25 04:26:45;;;;;;;73.77;37.13;;;3.30;99.90;;;;;;5033551;28;20157;-78
2022/01/25 04:29:11;;;;;;;70.97;38.53;;;3.30;99.90;;;;;;5000513;28;20522;-79
2022/01/25 04:31:38;;;;;;;75.50;37.65;;;3.30;99.90;;;;;;5016813;28;20042;-79
2022/01/25 04:53:38;;;;;;;69.03;36.33;;;3.30;99.90;;;;;;5031707;28;20045;-79
2022/01/25 04:58:24;;;;;;;72.47;38.83;;;3.30;99.90;;;;;;5032679;28;20044;-79
2022/01/25 05:00:50;;;;;;;72.60;38.47;;;3.30;99.90;;;;;;5016052;28;20132;-78
2022/01/25 05:03:23;;;;;;;77.70;38.97;;;3.30;99.90;;;;;;5016315;28;20049;-78
2022/01/25 05:06:05;;;;;;;70.60;37.37;;;3.30;99.90;;;;;;5017390;28;20079;-79
2022/01/25 05:08:37;;;;;;;72.43;38.42;;;3.30;99.90;;;;;;5032768;28;20385;-79
2022/01/25 05:11:09;;;;;;;70.47;38.30;;;3.30;99.90;;;;;;5015976;28;20049;-78
2022/01/25 05:16:06;;;;;;;74.25;37.05;;;3.40;99.90;;;;;;5032377;28;20064;-78
2022/01/25 05:18:44;;;;;;;79.38;42.05;;;3.30;99.90;;;;;;5032314;28;20053;-79
2022/01/25 05:23:55;;;;;;;73.43;36.43;;;3.30;99.90;;;;;;5032314;28;20048;-79
2022/01/25 05:26:21;;;;;;;69.57;37.57;;;3.30;99.90;;;;;;4999698;28;20403;-79
2022/01/25 05:28:47;;;;;;;69.23;37.03;;;3.30;99.90;;;;;;5032348;28;20049;-78
2022/01/25 05:31:13;;;;;;;74.27;38.80;;;3.30;99.90;;;;;;5032146;28;20047;-79
2022/01/25 05:33:38;;;;;;;80.43;39.07;;;3.30;99.90;;;;;;5015920;28;20081;-78
2022/01/25 05:36:04;;;;;;;75.60;38.70;;;3.30;99.90;;;;;;5031788;28;20055;-79
2022/01/25 05:38:30;;;;;;;80.37;40.80;;;3.30;99.90;;;;;;5015514;28;20128;-79
2022/01/25 05:40:59;;;;;;;78.18;38.60;;;3.30;99.90;;;;;;5031640;28;20498;-78
2022/01/25 05:46:13;;;;;;;70.50;37.58;;;3.30;99.90;;;;;;5031975;28;20060;-79
2022/01/25 05:48:40;;;;;;;74.87;38.83;;;3.30;99.90;;;;;;5031852;28;20123;-78
2022/01/25 05:51:06;;;;;;;66.43;36.47;;;3.40;99.90;;;;;;5031998;28;20492;-78
2022/01/25 05:53:32;;;;;;;72.55;40.53;;;3.30;99.90;;;;;;5015510;28;20507;-79
2022/01/25 05:55:58;;;;;;;78.90;40.22;;;3.30;99.90;;;;;;5015196;28;20140;-79
2022/01/25 05:58:24;;;;;;;76.78;38.67;;;3.30;99.90;;;;;;5032142;28;20395;-79
2022/01/25 06:00:51;;;;;;;62.85;33.22;;;3.30;99.90;;;;;;5031678;28;20557;-79
2022/01/25 06:03:17;;;;;;;71.13;38.20;;;3.30;99.90;;;;;;5031503;28;20502;-79
2022/01/25 06:05:43;;;;;;;72.20;37.75;;;3.30;99.90;;;;;;5031686;28;20439;-79
2022/01/25 06:08:09;;;;;;;70.22;39.00;;;3.30;99.90;;;;;;5015143;28;20076;-78
2022/01/25 06:10:35;;;;;;;79.47;40.40;;;3.30;99.90;;;;;;5031398;28;20084;-78
2022/01/25 06:13:01;;;;;;;59.60;30.35;;;3.30;99.90;;;;;;5015089;28;20110;-79
2022/01/25 06:15:27;;;;;;;74.32;39.92;;;3.30;99.90;;;;;;5014989;28;20045;-79
2022/01/25 06:17:53;;;;;;;73.40;38.85;;;3.30;99.90;;;;;;5031737;28;20048;-79
2022/01/25 06:20:19;;;;;;;70.82;36.03;;;3.30;99.90;;;;;;5014886;28;20049;-78
2022/01/25 06:22:45;;;;;;;71.70;38.95;;;3.30;99.90;;;;;;5015058;28;20133;-79
2022/01/25 06:25:11;;;;;;;76.93;39.33;;;3.30;99.90;;;;;;5015169;28;20124;-78
2022/01/25 06:27:42;;;;;;;80.32;41.25;;;3.30;99.90;;;;;;5031347;28;20049;-79
2022/01/25 06:30:10;;;;;;;76.75;40.38;;;3.30;99.90;;;;;;5014852;28;20045;-78
2022/01/25 06:32:36;;;;;;;75.57;37.47;;;3.30;99.90;;;;;;5015096;28;20042;-78
2022/01/25 06:35:03;;;;;;;79.00;40.08;;;3.30;99.90;;;;;;5031126;28;20060;-78
2022/01/25 06:37:29;;;;;;;72.93;37.22;;;3.30;99.90;;;;;;5015077;28;20128;-79
2022/01/25 06:39:56;;;;;;;72.03;37.70;;;3.30;99.90;;;;;;5030833;28;20129;-78
2022/01/25 06:42:23;;;;;;;82.38;41.72;;;3.30;99.90;;;;;;4998771;28;20437;-79
2022/01/25 06:44:53;;;;;;;67.05;34.40;;;3.30;99.90;;;;;;5015235;28;20060;-79
2022/01/25 06:47:19;;;;;;;76.78;39.92;;;3.20;99.90;;;;;;5031473;28;20068;-80
2022/01/25 06:49:45;;;;;;;84.00;40.30;;;3.20;99.90;;;;;;5031032;28;20046;-78
2022/01/25 06:52:11;;;;;;;75.50;37.10;;;3.20;99.90;;;;;;5014795;28;20571;-78
2022/01/25 06:54:37;;;;;;;77.47;39.28;;;3.20;99.90;;;;;;5031045;28;20045;-78
2022/01/25 06:57:03;;;;;;;77.50;40.20;;;3.20;99.90;;;;;;5014853;28;20476;-78
2022/01/25 06:59:29;;;;;;;81.80;40.83;;;3.20;99.90;;;;;;5014798;28;20494;-78
2022/01/25 07:01:54;;;;;;;79.17;39.93;;;3.20;99.90;;;;;;5031396;28;20041;-78
2022/01/25 07:04:20;;;;;;;79.95;40.55;;;3.20;99.90;;;;;;5014579;28;20084;-79
2022/01/25 07:06:46;;;;;;;74.60;39.67;;;3.20;99.90;;;;;;5031365;28;20048;-78
2022/01/25 07:09:11;;;;;;;77.97;38.50;;;3.20;99.90;;;;;;5030844;28;20044;-79
2022/01/25 07:11:37;;;;;;;74.88;38.13;;;3.20;99.90;;;;;;4982384;28;20052;-79
2022/01/25 07:14:03;;;;;;;78.70;40.80;;;3.20;99.90;;;;;;5014792;28;20049;-79
2022/01/25 07:16:29;;;;;;;75.95;39.47;;;3.20;99.90;;;;;;5017050;28;20056;-79
2022/01/25 07:18:55;;;;;;;82.30;40.97;;;3.20;99.90;;;;;;5018069;28;20120;-78
2022/01/25 07:21:20;;;;;;;75.00;38.72;;;3.20;99.90;;;;;;5034485;28;20106;-78
2022/01/25 07:23:46;;;;;;;87.95;41.60;;;3.30;99.90;;;;;;5034372;28;20049;-78
2022/01/25 07:26:12;;;;;;;75.50;39.60;;;3.20;99.90;;;;;;5034685;28;20049;-78
2022/01/25 07:28:38;;;;;;;75.97;39.13;;;3.20;99.90;;;;;;5034634;28;20045;-79
2022/01/25 07:31:04;;;;;;;89.97;42.65;;;3.20;99.90;;;;;;5034331;28;20060;-79
2022/01/25 07:33:29;;;;;;;76.72;37.38;;;3.20;99.90;;;;;;5017778;28;20045;-78
2022/01/25 07:35:56;;;;;;;82.85;41.97;;;3.20;99.90;;;;;;5017799;28;20041;-79
2022/01/25 07:38:21;;;;;;;84.38;42.33;;;3.30;99.90;;;;;;5034147;28;20055;-78
2022/01/25 07:40:47;;;;;;;77.85;40.08;;;3.20;99.90;;;;;;5017470;28;20140;-79
2022/01/25 07:43:13;;;;;;;88.72;42.47;;;3.30;99.90;;;;;;5034409;28;20052;-78
2022/01/25 07:45:41;;;;;;;86.13;42.13;;;3.20;99.90;;;;;;5017566;28;20430;-79
2022/01/25 07:48:08;;;;;;;94.17;44.30;;;3.20;99.90;;;;;;5017812;28;20484;-79
2022/01/25 07:50:35;;;;;;;80.10;37.73;;;3.20;99.90;;;;;;5034089;28;20085;-78
2022/01/25 07:53:01;;;;;;;81.80;41.20;;;3.20;99.90;;;;;;5033969;28;20045;-78
2022/01/25 07:55:26;;;;;;;79.97;39.27;;;3.20;99.90;;;;;;5017288;28;20050;-78
2022/01/25 07:57:52;;;;;;;75.63;38.17;;;3.20;99.90;;;;;;5033912;28;20549;-78
2022/01/25 08:00:19;;;;;;;86.67;42.27;;;3.20;99.90;;;;;;5017142;28;20045;-79
2022/01/25 08:02:46;;;;;;;80.65;38.70;;;3.20;99.90;;;;;;5017279;28;20048;-79
2022/01/25 08:05:14;;;;;;;83.88;39.72;;;3.20;99.90;;;;;;5033549;28;20124;-79
2022/01/25 08:07:40;;;;;;;80.47;40.33;;;3.20;99.90;;;;;;5033899;28;20411;-78
2022/01/25 08:10:06;;;;;;;80.93;42.03;;;3.20;99.90;;;;;;4984785;28;20045;-78
2022/01/25 08:12:31;;;;;;;79.57;40.73;;;3.20;99.90;;;;;;5000897;28;20045;-78
2022/01/25 08:14:58;;;;;;;83.13;42.28;;;3.20;99.90;;;;;;5016912;28;20487;-78
2022/01/25 08:17:24;;;;;;;90.32;43.53;;;3.20;99.90;;;;;;5000956;28;20049;-79
2022/01/25 08:19:50;;;;;;;79.97;39.80;;;3.30;99.90;;;;;;5016957;28;20488;-79
2022/01/25 08:22:18;;;;;;;83.93;41.67;;;3.30;99.90;;;;;;5033297;28;20049;-78
2022/01/25 08:24:45;;;;;;;87.55;43.08;;;3.30;99.90;;;;;;5016518;28;20051;-79
2022/01/25 08:27:11;;;;;;;88.07;40.87;;;3.30;99.90;;;;;;5016568;28;20045;-79
2022/01/25 08:29:40;;;;;;;88.47;43.30;;;3.40;99.90;;;;;;5033319;28;20385;-79
2022/01/25 08:32:06;;;;;;;87.15;41.67;;;3.30;99.90;;;;;;5033190;28;20049;-79
2022/01/25 08:34:31;;;;;;;86.10;42.10;;;3.30;99.90;;;;;;5016522;28;20060;-78
2022/01/25 08:36:58;;;;;;;87.43;43.65;;;3.40;99.90;;;;;;5033225;28;20049;-79
2022/01/25 08:39:26;;;;;;;85.57;43.08;;;3.40;99.90;;;;;;5016208;28;20048;-80
2022/01/25 08:41:55;;;;;;;82.60;41.88;;;3.40;99.90;;;;;;5033135;28;20061;-79
2022/01/25 08:44:21;;;;;;;86.80;43.37;;;3.40;99.90;;;;;;5032875;28;20056;-78
2022/01/25 08:46:47;;;;;;;85.80;42.08;;;3.40;99.90;;;;;;5032916;28;20128;-78
2022/01/25 08:49:13;;;;;;;78.85;39.15;;;3.50;99.90;;;;;;5016498;28;20124;-79
2022/01/25 08:51:39;;;;;;;79.13;38.92;;;3.40;99.90;;;;;;5032903;28;20075;-79
2022/01/25 08:54:05;;;;;;;82.35;42.42;;;3.40;99.90;;;;;;5032688;28;20037;-79
2022/01/25 08:56:31;;;;;;;81.33;41.60;;;3.50;99.90;;;;;;5032754;28;20049;-79
2022/01/25 08:58:58;;;;;;;88.60;42.55;;;3.50;99.90;;;;;;5032592;28;20045;-79
2022/01/25 09:01:26;;;;;;;82.10;40.72;;;3.50;99.90;;;;;;5032589;28;20399;-79
2022/01/25 09:03:54;;;;;;;84.15;42.28;;;3.50;99.90;;;;;;5032688;28;20404;-79
2022/01/25 09:06:20;;;;;;;91.75;43.38;;;3.50;99.90;;;;;;5016311;28;20073;-78
2022/01/25 09:08:46;;;;;;;78.43;40.22;;;3.50;99.90;;;;;;5015817;28;20042;-80
2022/01/25 09:11:12;;;;;;;88.03;42.80;;;3.50;99.90;;;;;;5032500;28;20510;-79
2022/01/25 09:13:39;;;;;;;77.93;41.05;;;3.50;99.90;;;;;;5015824;28;20049;-78
2022/01/25 09:16:07;;;;;;;89.53;41.83;;;3.50;99.90;;;;;;5032486;28;20076;-79
2022/01/25 09:18:32;;;;;;;83.95;41.78;;;3.50;99.90;;;;;;5016007;28;20108;-78
2022/01/25 09:20:59;;;;;;;83.28;40.05;;;3.50;99.90;;;;;;5031945;28;20085;-79
2022/01/25 09:23:25;;;;;;;73.32;35.65;;;3.50;99.90;;;;;;5015862;28;20403;-78
2022/01/25 09:25:52;;;;;;;82.28;40.25;;;3.60;99.90;;;;;;5032164;28;20380;-79
2022/01/25 09:28:18;;;;;;;82.57;41.65;;;3.60;99.90;;;;;;5032204;28;20147;-78
2022/01/25 09:30:44;;;;;;;81.22;41.35;;;3.70;99.90;;;;;;4999041;28;20048;-79
2022/01/25 09:33:11;;;;;;;85.07;41.67;;;3.60;99.90;;;;;;5032508;28;20623;-78
2022/01/25 09:35:37;;;;;;;82.00;41.38;;;3.50;99.90;;;;;;5015214;28;20049;-79
2022/01/25 09:38:03;;;;;;;51.27;24.07;;;3.50;99.90;;;;;;5031279;28;20104;-79
2022/01/25 09:40:29;;;;;;;88.45;43.85;;;3.50;99.90;;;;;;5031401;28;20353;-79
2022/01/25 09:42:57;;;;;;;77.53;38.17;;;3.50;99.90;;;;;;5015451;28;20049;-79
2022/01/25 09:45:23;;;;;;;84.82;42.22;;;3.50;99.90;;;;;;5031549;28;20111;-78
2022/01/25 09:47:51;;;;;;;74.72;35.53;;;3.50;99.90;;;;;;5015288;28;20076;-78
2022/01/25 09:50:18;;;;;;;73.35;35.22;;;3.50;99.90;;;;;;5031441;28;20103;-79
2022/01/25 09:52:44;;;;;;;81.85;39.45;;;3.50;99.90;;;;;;5031845;28;20658;-78
2022/01/25 09:55:15;;;;;;;82.10;43.75;;;3.70;99.90;;;;;;5031677;28;20514;-79
2022/01/25 09:57:41;;;;;;;79.85;40.97;;;3.50;99.90;;;;;;5015133;28;20041;-78
2022/01/25 10:00:09;;;;;;;56.15;27.67;;;3.50;99.90;;;;;;5031344;28;20049;-79
2022/01/25 10:02:44;;;;;;;81.68;40.78;;;3.50;99.90;;;;;;5014994;28;20113;-79
2022/01/25 10:05:27;;;;;;;81.72;41.63;;;3.50;99.90;;;;;;5031695;28;20049;-79
2022/01/25 10:08:26;;;;;;;75.57;36.67;;;3.50;99.90;;;;;;5031475;28;20049;-79
2022/01/25 10:10:57;;;;;;;85.88;42.17;;;3.50;99.90;;;;;;5031788;28;20639;-78
2022/01/25 10:13:38;;;;;;;72.60;32.72;;;3.50;99.90;;;;;;5031311;28;20049;-78
2022/01/25 10:16:19;;;;;;;80.95;35.83;;;3.50;99.90;;;;;;5014816;28;20190;-78
2022/01/25 10:18:50;;;;;;;81.07;38.58;;;3.50;99.90;;;;;;5031235;28;20056;-78
2022/01/25 10:21:24;;;;;;;83.78;41.97;;;3.50;99.90;;;;;;5031285;28;20124;-79
2022/01/25 10:24:09;;;;;;;80.82;39.03;;;3.50;99.90;;;;;;5031452;28;20488;-78
2022/01/25 10:27:00;;;;;;;86.78;40.90;;;3.50;99.90;;;;;;5031662;28;20432;-79
2022/01/25 10:29:34;;;;;;;74.82;38.50;;;3.50;99.90;;;;;;5031449;28;20499;-78
2022/01/25 10:32:05;;;;;;;69.75;32.90;;;3.50;99.90;;;;;;5015183;28;20053;-79
2022/01/25 10:34:41;;;;;;;83.25;39.72;;;3.50;99.90;;;;;;5014743;28;20061;-78
2022/01/25 10:37:11;;;;;;;78.65;37.80;;;3.50;99.90;;;;;;5031275;28;20042;-78
2022/01/25 10:39:41;;;;;;;89.30;40.80;;;3.50;99.90;;;;;;5030719;28;20062;-79
2022/01/25 10:42:12;;;;;;;64.05;30.08;;;3.50;99.90;;;;;;5031351;28;20091;-80
2022/01/25 10:45:04;;;;;;;86.13;39.00;;;3.50;99.90;;;;;;5030977;28;20045;-79
2022/01/25 10:47:49;;;;;;;79.13;39.40;;;3.50;99.90;;;;;;5028914;28;20111;-78
2022/01/25 10:50:23;;;;;;;86.68;39.55;;;3.40;99.90;;;;;;5033560;28;20499;-78
2022/01/25 10:53:15;;;;;;;89.85;42.22;;;3.50;99.90;;;;;;5034933;28;20041;-79
2022/01/25 10:55:42;;;;;;;81.90;38.72;;;3.50;99.90;;;;;;5034613;28;20045;-79
2022/01/25 10:58:08;;;;;;;86.68;41.95;;;3.50;99.90;;;;;;5018563;28;20232;-79
2022/01/25 11:00:42;;;;;;;88.38;40.22;;;3.50;99.90;;;;;;5034440;28;20041;-78
2022/01/25 11:03:08;;;;;;;93.97;43.22;;;3.50;99.90;;;;;;5034905;28;20046;-79
2022/01/25 11:05:37;;;;;;;89.85;42.40;;;3.50;99.90;;;;;;5018021;28;20053;-78
2022/01/25 11:08:17;;;;;;;82.05;39.38;;;3.60;99.90;;;;;;5018193;28;20132;-78
2022/01/25 11:10:52;;;;;;;74.95;34.53;;;3.50;99.90;;;;;;5034089;28;20474;-79
2022/01/25 11:15:56;;;;;;;87.53;39.30;;;3.50;99.90;;;;;;5019377;28;20053;-78
2022/01/25 11:18:22;;;;;;;96.82;45.35;;;3.50;99.90;;;;;;5033595;28;20042;-79
2022/01/25 11:20:50;;;;;;;87.57;40.33;;;3.50;99.90;;;;;;5033092;28;20045;-79
2022/01/25 11:23:17;;;;;;;93.20;43.45;;;3.50;99.90;;;;;;5034196;28;20144;-79
2022/01/25 11:25:44;;;;;;;80.30;36.47;;;3.60;99.90;;;;;;5034299;28;20401;-79
2022/01/25 11:28:12;;;;;;;69.47;32.40;;;3.60;99.90;;;;;;5034206;28;20046;-79
2022/01/25 11:30:40;;;;;;;85.63;37.70;;;3.60;99.90;;;;;;5034012;28;20120;-79
2022/01/25 11:33:09;;;;;;;75.80;31.50;;;3.50;99.90;;;;;;5018117;28;20492;-78
2022/01/25 11:35:37;;;;;;;67.35;29.90;;;3.50;99.90;;;;;;5017579;28;20130;-79
2022/01/25 11:38:04;;;;;;;86.85;42.83;;;3.60;99.90;;;;;;5018156;28;20537;-78
2022/01/25 11:40:44;;;;;;;86.20;39.80;;;3.60;99.90;;;;;;5017456;28;20068;-78
2022/01/25 11:43:15;;;;;;;75.10;32.40;;;3.60;99.90;;;;;;5034156;28;20053;-78
2022/01/25 11:45:49;;;;;;;77.43;38.50;;;3.70;99.90;;;;;;5033906;28;20081;-78
2022/01/25 11:48:35;;;;;;;68.68;27.88;;;3.60;99.90;;;;;;5034054;28;20080;-79
2022/01/25 11:51:02;;;;;;;65.57;29.83;;;3.60;99.90;;;;;;5033117;28;20073;-79
2022/01/25 11:53:29;;;;;;;73.20;30.67;;;3.60;99.90;;;;;;5000293;28;20069;-78
2022/01/25 11:55:56;;;;;;;91.35;42.58;;;3.60;99.90;;;;;;5033438;28;20048;-78
2022/01/25 11:58:21;;;;;;;90.22;41.75;;;3.60;99.90;;;;;;5017111;28;20500;-78
2022/01/25 12:00:56;;;;;;;62.63;26.65;;;3.60;99.90;;;;;;5033053;28;20045;-79
2022/01/25 12:03:32;;;;;;;58.88;24.60;;;3.50;99.90;;;;;;5033232;28;20125;-78
2022/01/25 12:06:07;;;;;;;78.53;38.40;;;3.50;99.90;;;;;;5033934;28;20155;-79
2022/01/25 12:11:58;;;;;;;87.90;41.10;;;3.50;99.90;;;;;;5003084;28;20049;-79
2022/01/25 12:14:33;;;;;;;91.88;41.45;;;3.50;99.90;;;;;;5032927;28;20049;-79
2022/01/25 12:17:13;;;;;;;74.80;34.63;;;3.60;99.90;;;;;;5029405;28;20045;-79
2022/01/25 12:19:57;;;;;;;79.88;37.92;;;3.60;99.90;;;;;;5033117;28;20471;-79
2022/01/25 12:22:26;;;;;;;87.00;37.25;;;3.70;99.90;;;;;;5031614;28;20552;-78
2022/01/25 12:25:15;;;;;;;71.88;32.72;;;3.60;99.90;;;;;;5031285;28;20053;-80
2022/01/25 12:27:51;;;;;;;74.78;33.65;;;3.70;99.90;;;;;;5031186;28;20582;-79
2022/01/25 12:30:19;;;;;;;49.70;21.20;;;3.60;99.90;;;;;;5031608;28;20108;-78
2022/01/25 12:32:51;;;;;;;91.20;38.50;;;3.70;99.90;;;;;;5031615;28;20038;-78
2022/01/25 12:35:18;;;;;;;73.95;35.38;;;3.70;99.90;;;;;;5031188;28;20430;-78
2022/01/25 12:37:44;;;;;;;62.03;26.10;;;3.70;99.90;;;;;;5031749;28;20042;-79
2022/01/25 12:40:25;;;;;;;94.30;43.53;;;3.70;99.90;;;;;;5030519;28;20072;-78
2022/01/25 12:43:04;;;;;;;94.40;41.67;;;3.80;99.90;;;;;;5032575;28;20442;-78
2022/01/25 12:45:35;;;;;;;67.97;33.92;;;3.80;99.90;;;;;;5032132;28;20049;-78
2022/01/25 12:48:05;;;;;;;92.78;41.40;;;3.90;99.90;;;;;;5031316;28;20045;-79
2022/01/25 12:50:32;;;;;;;70.65;33.90;;;3.70;99.90;;;;;;5015947;28;20132;-78
2022/01/25 12:53:03;;;;;;;55.85;26.73;;;3.70;99.90;;;;;;5032471;28;20084;-78
2022/01/25 12:55:34;;;;;;;74.10;31.83;;;3.70;99.90;;;;;;5015386;28;20073;-78
2022/01/25 12:58:00;;;;;;;58.63;27.63;;;3.60;99.90;;;;;;5031517;28;20037;-78
2022/01/25 13:00:36;;;;;;;78.70;35.03;;;3.60;99.90;;;;;;5015351;28;20053;-78
2022/01/25 13:03:22;;;;;;;72.85;35.05;;;3.50;99.90;;;;;;5031393;28;20054;-79
2022/01/25 13:05:54;;;;;;;71.30;31.63;;;3.60;99.90;;;;;;5026484;28;20045;-79
2022/01/25 13:08:27;;;;;;;85.93;39.08;;;3.60;99.90;;;;;;5015679;28;20107;-78
2022/01/25 13:11:13;;;;;;;88.13;41.97;;;3.60;99.90;;;;;;5032651;28;20049;-78
2022/01/25 13:13:58;;;;;;;84.97;36.80;;;3.70;99.90;;;;;;5031329;28;20045;-78
2022/01/25 13:16:34;;;;;;;61.15;26.42;;;3.60;99.90;;;;;;5032599;28;20099;-79
2022/01/25 13:19:00;;;;;;;88.55;40.15;;;3.60;99.90;;;;;;5032097;28;20049;-79
2022/01/25 13:21:27;;;;;;;71.30;29.88;;;3.60;99.90;;;;;;5032062;28;20603;-78
2022/01/25 13:23:54;;;;;;;81.20;37.90;;;3.60;99.90;;;;;;5032310;28;20107;-79
2022/01/25 13:26:21;;;;;;;89.70;42.75;;;3.50;99.90;;;;;;5015926;28;20160;-79
2022/01/25 13:31:15;;;;;;;78.65;38.90;;;3.50;99.90;;;;;;5016260;28;20396;-78
2022/01/25 13:33:41;;;;;;;87.22;39.05;;;3.50;99.90;;;;;;5031889;28;20068;-78
2022/01/25 13:36:08;;;;;;;83.50;38.90;;;3.50;99.90;;;;;;5031847;28;20554;-79
2022/01/25 13:38:37;;;;;;;78.28;33.05;;;3.50;99.90;;;;;;5031862;28;20099;-78
2022/01/25 13:46:09;;;;;;;93.15;42.60;;;3.50;99.90;;;;;;5031795;28;20045;-78
2022/01/25 13:48:36;;;;;;;82.23;37.33;;;3.50;99.90;;;;;;5031926;28;20223;-79
2022/01/25 13:51:15;;;;;;;74.97;32.47;;;3.50;99.90;;;;;;5032106;28;20507;-78
2022/01/25 13:53:41;;;;;;;87.25;38.67;;;3.50;99.90;;;;;;5015645;28;20129;-78
2022/01/25 13:56:11;;;;;;;64.50;29.85;;;3.50;99.90;;;;;;5031708;28;20100;-78
2022/01/25 13:58:40;;;;;;;76.75;34.20;;;3.40;99.90;;;;;;5015272;28;20374;-79
2022/01/25 14:01:09;;;;;;;93.67;44.07;;;3.40;99.90;;;;;;5015018;28;20052;-79
2022/01/25 14:03:39;;;;;;;93.55;42.40;;;3.40;99.90;;;;;;5031373;28;20120;-78
2022/01/25 14:06:28;;;;;;;91.37;41.30;;;3.40;99.90;;;;;;5031459;28;20037;-78
2022/01/25 14:09:01;;;;;;;59.65;27.55;;;3.40;99.90;;;;;;5031423;28;20048;-78
2022/01/25 14:21:38;;;;;;;91.00;41.30;;;3.40;99.90;;;;;;5031615;28;20045;-78
2022/01/25 14:25:30;;;;;;;70.43;31.70;;;3.50;99.90;;;;;;5036327;28;20049;-79
2022/01/25 14:27:58;;;;;;;71.95;28.83;;;3.40;99.90;;;;;;5037874;28;20091;-78
2022/01/25 14:30:24;;;;;;;85.47;37.63;;;3.40;99.90;;;;;;5037753;28;20146;-79
2022/01/25 14:33:02;;;;;;;94.90;40.75;;;3.40;99.90;;;;;;5037758;28;20099;-78
2022/01/25 14:35:31;;;;;;;96.72;41.65;;;3.40;99.90;;;;;;5037977;28;20495;-78
2022/01/25 14:37:57;;;;;;;94.47;41.67;;;3.40;99.90;;;;;;5021807;28;20420;-79
2022/01/25 14:40:23;;;;;;;73.70;32.63;;;3.40;99.90;;;;;;5021462;28;20061;-78
2022/01/25 14:42:50;;;;;;;80.78;34.67;;;3.40;99.90;;;;;;5038600;28;20136;-78
2022/01/25 14:45:20;;;;;;;84.55;37.38;;;3.40;99.90;;;;;;5021884;28;20433;-78
2022/01/25 14:47:53;;;;;;;73.53;31.45;;;3.40;99.90;;;;;;5022226;28;20504;-78
2022/01/25 14:50:32;;;;;;;58.08;26.25;;;3.30;99.90;;;;;;5021731;28;20362;-78
2022/01/25 14:53:10;;;;;;;81.65;36.75;;;3.30;99.90;;;;;;5038239;28;20554;-79
2022/01/25 14:55:39;;;;;;;80.72;35.55;;;3.30;99.90;;;;;;5038561;28;20137;-78
2022/01/25 15:00:44;;;;;;;93.57;42.22;;;3.30;99.90;;;;;;5037501;28;20053;-79
2022/01/25 15:03:10;;;;;;;100.20;44.33;;;3.30;99.90;;;;;;5038148;28;20315;-79
2022/01/25 15:05:36;;;;;;;78.35;35.65;;;3.30;99.90;;;;;;5021367;28;20508;-78
2022/01/25 15:08:02;;;;;;;69.03;29.15;;;3.30;99.90;;;;;;5038185;28;20045;-79